createdAt,value
2019-02-06T00:02:27.025Z,1.38
2019-02-06T00:07:45.643Z,1.33
2019-02-06T00:13:04.539Z,1.35
2019-02-06T00:18:23.365Z,1.35
2019-02-06T00:23:42.001Z,1.53
2019-02-06T00:29:00.827Z,1.70
2019-02-06T00:34:19.734Z,1.75
2019-02-06T00:39:38.366Z,1.77
2019-02-06T00:44:56.932Z,1.75
2019-02-06T00:50:18.454Z,1.83
2019-02-06T00:55:37.071Z,1.75
2019-02-06T01:00:55.700Z,1.83
2019-02-06T01:06:14.600Z,1.79
2019-02-06T01:11:33.593Z,1.78
2019-02-06T01:16:52.208Z,1.67
2019-02-06T01:22:10.890Z,1.86
2019-02-06T01:27:29.504Z,1.72
2019-02-06T01:32:48.557Z,1.57
2019-02-06T01:38:07.450Z,1.66
2019-02-06T01:43:26.074Z,1.50
2019-02-06T01:48:44.887Z,1.30
2019-02-06T01:54:03.525Z,1.30
2019-02-06T01:59:22.292Z,1.18
2019-02-06T02:04:41.008Z,1.10
2019-02-06T02:09:59.689Z,1.17
2019-02-06T02:15:19.420Z,1.03
2019-02-06T02:20:38.037Z,1.06
2019-02-06T02:25:56.754Z,0.96
2019-02-06T02:31:18.333Z,0.96
2019-02-06T02:36:36.810Z,0.98
2019-02-06T02:41:55.428Z,1.03
2019-02-06T02:47:14.049Z,1.03
2019-02-06T02:52:32.595Z,1.12
2019-02-06T02:57:51.351Z,1.00
2019-02-06T03:03:26.497Z,1.04
2019-02-06T03:08:45.117Z,0.97
2019-02-06T03:14:03.928Z,0.72
2019-02-06T03:19:22.753Z,0.75
2019-02-06T03:24:41.650Z,0.75
2019-02-06T03:30:00.441Z,0.60
2019-02-06T03:35:19.048Z,0.68
2019-02-06T03:40:37.640Z,0.99
2019-02-06T03:45:56.544Z,1.01
2019-02-06T03:51:15.198Z,1.04
2019-02-06T03:56:33.787Z,1.09
2019-02-06T04:01:52.452Z,1.26
2019-02-06T04:07:11.289Z,1.02
2019-02-06T04:12:29.928Z,1.10
2019-02-06T04:17:48.747Z,1.08
2019-02-06T04:23:07.376Z,1.14
2019-02-06T04:28:26.512Z,0.97
2019-02-06T04:33:45.064Z,1.27
2019-02-06T04:39:05.134Z,1.43
2019-02-06T04:44:23.731Z,1.71
2019-02-06T04:49:42.281Z,1.60
2019-02-06T04:55:00.910Z,1.54
2019-02-06T05:00:24.623Z,1.64
2019-02-06T05:05:43.468Z,1.74
2019-02-06T05:11:02.272Z,1.69
2019-02-06T05:16:20.766Z,1.50
2019-02-06T05:21:39.370Z,1.41
2019-02-06T05:26:58.018Z,1.36
2019-02-06T05:32:16.637Z,1.38
2019-02-06T05:37:35.190Z,1.15
2019-02-06T05:42:54.023Z,1.19
2019-02-06T05:48:12.578Z,1.18
2019-02-06T05:53:31.121Z,1.28
2019-02-06T05:58:49.705Z,1.35
2019-02-06T06:04:08.613Z,1.33
2019-02-06T06:09:27.077Z,1.32
2019-02-06T06:14:45.721Z,1.34
2019-02-06T06:20:07.438Z,1.53
2019-02-06T06:25:26.079Z,1.57
2019-02-06T06:30:47.249Z,1.54
2019-02-06T06:36:05.308Z,1.44
2019-02-06T06:47:20.010Z,1.73
2019-02-06T06:52:40.065Z,1.77
2019-02-06T06:57:58.678Z,1.85
2019-02-06T07:03:17.331Z,1.83
2019-02-06T07:08:36.240Z,1.74
2019-02-06T07:13:54.955Z,1.98
2019-02-06T07:19:13.580Z,2.03
2019-02-06T07:24:32.198Z,2.10
2019-02-06T07:29:50.745Z,2.25
2019-02-06T07:35:09.463Z,2.22
2019-02-06T07:40:28.401Z,2.39
2019-02-06T07:45:46.940Z,2.52
2019-02-06T07:51:06.122Z,2.71
2019-02-06T07:56:24.705Z,2.71
2019-02-06T08:01:43.334Z,2.99
2019-02-06T08:07:01.880Z,3.19
2019-02-06T08:12:20.789Z,3.21
2019-02-06T08:17:39.798Z,3.32
2019-02-06T08:22:58.430Z,3.46
2019-02-06T08:28:17.325Z,3.48
2019-02-06T08:33:35.932Z,3.61
2019-02-06T08:38:55.703Z,3.79
2019-02-06T08:44:14.474Z,3.93
2019-02-06T08:49:33.097Z,4.11
2019-02-06T08:54:51.591Z,4.23
2019-02-06T09:00:16.129Z,4.33
2019-02-06T09:05:34.752Z,4.40
2019-02-06T09:10:53.453Z,4.48
2019-02-06T09:16:12.069Z,4.50
2019-02-06T09:21:30.701Z,4.61
2019-02-06T09:26:49.370Z,4.67
2019-02-06T09:32:07.961Z,4.86
2019-02-06T09:37:26.500Z,4.93
2019-02-06T09:42:45.031Z,4.97
2019-02-06T09:48:03.578Z,5.04
2019-02-06T09:53:22.491Z,5.12
2019-02-06T09:58:41.240Z,5.57
2019-02-06T10:03:59.745Z,5.87
2019-02-06T10:09:23.075Z,6.05
2019-02-06T10:14:39.206Z,6.28
2019-02-06T10:19:58.031Z,6.62
2019-02-06T10:25:16.689Z,6.81
2019-02-06T10:30:37.967Z,7.03
2019-02-06T10:35:56.610Z,6.96
2019-02-06T10:41:15.222Z,6.92
2019-02-06T10:46:33.774Z,7.07
2019-02-06T10:51:52.765Z,7.11
2019-02-06T10:57:11.482Z,7.37
2019-02-06T11:02:30.089Z,7.26
2019-02-06T11:07:48.716Z,7.29
2019-02-06T11:13:07.697Z,7.22
2019-02-06T11:18:26.718Z,7.46
2019-02-06T11:23:45.285Z,7.44
2019-02-06T11:29:04.004Z,7.55
2019-02-06T11:34:22.840Z,7.39
2019-02-06T11:39:41.480Z,7.50
2019-02-06T11:45:00.326Z,7.58
2019-02-06T11:50:22.761Z,7.70
2019-02-06T11:55:41.416Z,7.85
2019-02-06T12:01:01.859Z,7.75
2019-02-06T12:06:20.510Z,8.00
2019-02-06T12:11:39.114Z,7.76
2019-02-06T12:16:57.983Z,7.93
2019-02-06T12:22:16.619Z,7.86
2019-02-06T12:27:35.265Z,7.90
2019-02-06T12:32:53.820Z,8.18
2019-02-06T12:38:12.473Z,8.36
2019-02-06T12:43:31.126Z,8.39
2019-02-06T12:48:49.780Z,8.18
2019-02-06T12:54:08.936Z,8.03
2019-02-06T12:59:27.521Z,7.77
2019-02-06T13:04:46.072Z,7.90
2019-02-06T13:10:10.536Z,7.87
2019-02-06T13:15:29.162Z,7.74
2019-02-06T13:20:51.107Z,8.05
2019-02-06T13:26:08.252Z,8.37
2019-02-06T13:31:26.754Z,8.56
2019-02-06T13:36:45.302Z,8.52
2019-02-06T13:42:05.541Z,8.35
2019-02-06T13:47:24.349Z,8.48
2019-02-06T13:52:42.964Z,8.56
2019-02-06T13:58:01.606Z,8.51
2019-02-06T14:03:20.157Z,8.60
2019-02-06T14:08:38.713Z,8.79
2019-02-06T14:13:57.353Z,8.79
2019-02-06T14:19:15.822Z,8.79
2019-02-06T14:24:37.339Z,8.54
2019-02-06T14:30:16.797Z,8.50
2019-02-06T14:35:49.901Z,8.47
2019-02-06T14:41:11.716Z,8.74
2019-02-06T14:47:05.891Z,8.90
2019-02-06T14:52:58.680Z,8.88
2019-02-06T14:58:53.628Z,8.62
2019-02-06T15:04:31.791Z,8.42
2019-02-06T15:10:14.255Z,8.35
2019-02-06T15:15:35.798Z,8.34
2019-02-06T15:21:21.525Z,8.23
2019-02-06T15:27:04.171Z,8.25
2019-02-06T15:32:34.331Z,8.26
2019-02-06T15:38:04.885Z,8.17
2019-02-06T15:43:32.276Z,8.08
2019-02-06T15:49:14.757Z,7.96
2019-02-06T15:54:57.408Z,7.95
2019-02-06T16:00:39.871Z,7.91
2019-02-06T16:06:08.998Z,7.65
2019-02-06T16:11:42.431Z,7.57
2019-02-06T16:17:20.572Z,7.35
2019-02-06T16:22:58.055Z,7.27
2019-02-06T16:28:37.221Z,7.16
2019-02-06T16:34:07.590Z,7.22
2019-02-06T16:39:31.738Z,7.14
2019-02-06T16:44:59.239Z,7.04
2019-02-06T16:50:29.633Z,7.13
2019-02-06T16:56:10.467Z,7.10
2019-02-06T17:01:44.050Z,7.02
2019-02-06T17:07:20.532Z,6.97
2019-02-06T17:12:58.165Z,6.94
2019-02-06T17:18:25.424Z,6.86
2019-02-06T17:23:58.905Z,6.76
2019-02-06T17:29:20.446Z,6.78
2019-02-06T17:34:57.083Z,6.72
2019-02-06T17:40:36.742Z,6.66
2019-02-06T17:46:04.270Z,6.73
2019-02-06T17:51:41.287Z,6.71
2019-02-06T17:56:59.870Z,6.64
2019-02-06T18:02:18.492Z,6.72
2019-02-06T18:07:42.298Z,6.62
2019-02-06T18:13:00.925Z,6.52
2019-02-06T18:18:19.541Z,6.52
2019-02-06T18:23:38.175Z,6.46
2019-02-06T18:28:56.901Z,6.41
2019-02-06T18:34:15.796Z,6.38
2019-02-06T18:39:34.428Z,6.32
2019-02-06T18:44:53.064Z,6.30
2019-02-06T18:50:23.471Z,6.24
2019-02-06T18:55:42.199Z,6.26
2019-02-06T19:01:00.935Z,6.16
2019-02-06T19:06:19.731Z,6.25
2019-02-06T19:11:38.573Z,6.22
2019-02-06T19:16:57.342Z,6.20
2019-02-06T19:22:17.563Z,6.04
2019-02-06T19:27:37.098Z,6.01
2019-02-06T19:32:55.872Z,6.03
2019-02-06T19:38:14.487Z,6.04
2019-02-06T19:43:33.158Z,6.15
2019-02-06T19:48:53.263Z,6.12
2019-02-06T19:54:12.159Z,6.13
2019-02-06T19:59:30.657Z,6.00
2019-02-06T20:04:49.946Z,5.92
2019-02-06T20:10:13.195Z,5.89
2019-02-06T20:15:31.697Z,5.84
2019-02-06T20:20:50.244Z,5.85
2019-02-06T20:26:08.893Z,5.77
2019-02-06T20:31:27.894Z,5.75
2019-02-06T20:36:46.614Z,5.72
2019-02-06T20:42:07.409Z,5.70
2019-02-06T20:47:25.912Z,5.66
2019-02-06T20:52:44.673Z,5.65
2019-02-06T20:58:03.301Z,5.58
2019-02-06T21:03:21.946Z,5.60
2019-02-06T21:08:40.507Z,5.62
2019-02-06T21:13:59.197Z,5.62
2019-02-06T21:19:17.765Z,5.61
2019-02-06T21:24:36.520Z,5.59
2019-02-06T21:29:55.325Z,5.65
2019-02-06T21:35:13.946Z,5.66
2019-02-06T21:40:37.309Z,5.67
2019-02-06T21:45:56.037Z,5.62
2019-02-06T21:51:14.583Z,5.61
2019-02-06T21:56:37.551Z,5.66
2019-02-06T22:01:56.166Z,5.75
2019-02-06T22:07:14.998Z,5.78
2019-02-06T22:12:36.731Z,5.76
2019-02-06T22:17:55.763Z,5.78
2019-02-06T22:23:18.372Z,5.82
2019-02-06T22:28:36.890Z,5.77
2019-02-06T22:33:55.500Z,5.78
2019-02-06T22:39:15.642Z,5.74
2019-02-06T22:44:34.272Z,5.77
2019-02-06T22:49:53.782Z,5.77
2019-02-06T22:55:13.400Z,5.74
2019-02-06T23:00:51.385Z,5.73
2019-02-06T23:06:10.166Z,5.70
2019-02-06T23:11:29.148Z,5.66
2019-02-06T23:16:47.766Z,5.59
2019-02-06T23:22:06.562Z,5.43
2019-02-06T23:27:25.359Z,5.35
2019-02-06T23:32:43.927Z,5.29
2019-02-06T23:38:02.474Z,5.26
2019-02-06T23:43:21.183Z,5.23
2019-02-06T23:48:39.889Z,5.25
2019-02-06T23:53:59.031Z,5.23
2019-02-06T23:59:17.602Z,5.26
